createdAt,value
2019-03-13T00:00:14.818Z,5.00
2019-03-13T00:02:44.519Z,5.00
2019-03-13T00:05:14.222Z,4.90
2019-03-13T00:07:43.948Z,4.90
2019-03-13T00:10:13.676Z,4.90
2019-03-13T00:12:43.430Z,4.90
2019-03-13T00:15:13.875Z,4.90
2019-03-13T00:17:43.569Z,4.90
2019-03-13T00:20:13.623Z,4.90
2019-03-13T00:22:43.465Z,4.90
2019-03-13T00:25:13.216Z,4.90
2019-03-13T00:27:42.859Z,4.90
2019-03-13T00:30:13.252Z,4.90
2019-03-13T00:32:42.863Z,4.80
2019-03-13T00:35:12.702Z,4.80
2019-03-13T00:37:42.401Z,4.80
2019-03-13T00:40:12.407Z,4.80
2019-03-13T00:42:42.256Z,4.80
2019-03-13T00:45:13.239Z,4.80
2019-03-13T00:47:42.979Z,4.80
2019-03-13T00:50:27.989Z,4.80
2019-03-13T00:52:57.753Z,4.80
2019-03-13T00:55:27.550Z,4.80
2019-03-13T00:57:57.200Z,4.80
2019-03-13T01:00:48.766Z,4.80
2019-03-13T01:03:36.380Z,4.90
2019-03-13T01:06:08.417Z,4.90
2019-03-13T01:08:38.199Z,4.90
2019-03-13T01:11:08.029Z,4.90
2019-03-13T01:13:37.815Z,4.90
2019-03-13T01:16:07.508Z,4.90
2019-03-13T01:18:37.248Z,4.90
2019-03-13T01:21:06.998Z,4.90
2019-03-13T01:23:36.651Z,4.90
2019-03-13T01:26:06.400Z,4.90
2019-03-13T01:28:38.145Z,4.90
2019-03-13T01:31:45.096Z,4.90
2019-03-13T01:34:39.807Z,4.90
2019-03-13T01:37:09.543Z,4.90
2019-03-13T01:39:39.207Z,4.90
2019-03-13T01:42:08.976Z,4.90
2019-03-13T01:44:40.764Z,4.90
2019-03-13T01:47:10.011Z,4.90
2019-03-13T01:49:39.749Z,4.90
2019-03-13T01:52:09.492Z,4.90
2019-03-13T01:54:39.130Z,4.90
2019-03-13T01:57:08.868Z,4.90
2019-03-13T01:59:38.623Z,4.90
2019-03-13T02:02:08.235Z,4.80
2019-03-13T02:04:40.380Z,4.80
2019-03-13T02:07:10.256Z,4.80
2019-03-13T02:09:40.045Z,4.80
2019-03-13T02:12:09.798Z,4.80
2019-03-13T02:14:39.524Z,4.70
2019-03-13T02:17:09.180Z,4.70
2019-03-13T02:19:38.928Z,4.60
2019-03-13T02:22:08.626Z,4.60
2019-03-13T02:24:38.323Z,4.60
2019-03-13T02:27:08.011Z,4.60
2019-03-13T02:29:37.778Z,4.50
2019-03-13T02:32:07.432Z,4.60
2019-03-13T02:34:37.153Z,4.60
2019-03-13T02:37:06.884Z,4.60
2019-03-13T02:39:36.577Z,4.50
2019-03-13T02:42:06.274Z,4.50
2019-03-13T02:44:36.109Z,4.50
2019-03-13T02:47:05.733Z,4.60
2019-03-13T02:49:35.432Z,4.60
2019-03-13T02:52:05.176Z,4.50
2019-03-13T02:54:34.858Z,4.60
2019-03-13T02:57:04.644Z,4.60
2019-03-13T02:59:34.320Z,4.70
2019-03-13T03:02:25.504Z,4.70
2019-03-13T03:04:56.511Z,4.70
2019-03-13T03:07:26.174Z,4.70
2019-03-13T03:09:55.936Z,4.80
2019-03-13T03:12:25.592Z,4.80
2019-03-13T03:15:07.450Z,4.80
2019-03-13T03:17:37.182Z,4.70
2019-03-13T03:20:09.317Z,4.60
2019-03-13T03:22:39.129Z,4.40
2019-03-13T03:25:09.610Z,4.30
2019-03-13T03:27:39.247Z,4.30
2019-03-13T03:30:12.260Z,4.20
2019-03-13T03:32:41.996Z,4.20
2019-03-13T03:35:11.713Z,4.20
2019-03-13T03:37:41.362Z,4.20
2019-03-13T03:40:12.774Z,4.30
2019-03-13T03:42:42.449Z,4.30
2019-03-13T03:45:12.535Z,4.40
2019-03-13T03:47:42.296Z,4.40
2019-03-13T03:50:12.520Z,4.50
2019-03-13T03:52:42.110Z,4.50
2019-03-13T03:55:11.935Z,4.60
2019-03-13T03:57:41.900Z,4.70
2019-03-13T04:00:12.255Z,4.70
2019-03-13T04:02:41.870Z,4.80
2019-03-13T04:05:12.280Z,4.80
2019-03-13T04:07:41.892Z,4.80
2019-03-13T04:10:11.726Z,4.90
2019-03-13T04:12:41.420Z,4.90
2019-03-13T04:15:11.438Z,4.90
2019-03-13T04:17:41.189Z,5.00
2019-03-13T04:20:10.972Z,5.00
2019-03-13T04:22:40.790Z,5.00
2019-03-13T04:25:33.777Z,5.00
2019-03-13T04:28:03.776Z,5.00
2019-03-13T04:30:33.641Z,5.00
2019-03-13T04:33:03.296Z,5.00
2019-03-13T04:35:33.072Z,5.00
2019-03-13T04:38:02.669Z,5.00
2019-03-13T04:40:32.452Z,5.00
2019-03-13T04:43:02.099Z,4.90
2019-03-13T04:45:31.822Z,4.80
2019-03-13T04:48:01.547Z,4.80
2019-03-13T04:50:31.272Z,4.70
2019-03-13T04:53:00.935Z,4.60
2019-03-13T04:55:30.645Z,4.60
2019-03-13T04:58:00.336Z,4.50
2019-03-13T05:00:30.047Z,4.50
2019-03-13T05:02:59.835Z,4.50
2019-03-13T05:05:58.643Z,4.50
2019-03-13T05:08:52.687Z,4.50
2019-03-13T05:11:22.369Z,4.50
2019-03-13T05:13:52.064Z,4.50
2019-03-13T05:16:21.818Z,4.50
2019-03-13T05:18:51.480Z,4.60
2019-03-13T05:21:21.188Z,4.60
2019-03-13T05:23:51.000Z,4.70
2019-03-13T05:26:20.624Z,4.70
2019-03-13T05:28:50.370Z,4.70
2019-03-13T05:31:20.060Z,4.70
2019-03-13T05:33:49.635Z,4.70
2019-03-13T05:36:19.324Z,4.70
2019-03-13T05:38:48.993Z,4.70
2019-03-13T05:41:18.688Z,4.70
2019-03-13T05:43:49.191Z,4.70
2019-03-13T05:46:18.998Z,4.80
2019-03-13T05:48:48.658Z,4.80
2019-03-13T05:51:18.371Z,4.80
2019-03-13T05:53:48.075Z,4.80
2019-03-13T05:56:17.779Z,4.80
2019-03-13T05:58:47.520Z,4.70
2019-03-13T06:01:17.284Z,4.70
2019-03-13T06:03:46.890Z,4.80
2019-03-13T06:06:16.637Z,4.80
2019-03-13T06:08:46.803Z,4.80
2019-03-13T06:11:16.447Z,4.80
2019-03-13T06:13:47.498Z,4.80
2019-03-13T06:16:17.640Z,4.70
2019-03-13T06:18:47.399Z,4.80
2019-03-13T06:21:17.111Z,4.80
2019-03-13T06:23:48.143Z,4.80
2019-03-13T06:26:17.947Z,4.90
2019-03-13T06:28:47.661Z,4.90
2019-03-13T06:31:17.473Z,4.90
2019-03-13T06:33:47.086Z,5.00
2019-03-13T06:36:16.787Z,5.00
2019-03-13T06:38:46.588Z,5.00
2019-03-13T06:41:16.243Z,5.10
2019-03-13T06:43:45.982Z,5.20
2019-03-13T06:46:15.659Z,5.20
2019-03-13T06:48:45.364Z,5.30
2019-03-13T06:51:15.060Z,5.30
2019-03-13T06:53:44.857Z,5.40
2019-03-13T06:56:14.484Z,5.50
2019-03-13T06:59:13.493Z,5.50
2019-03-13T07:01:49.891Z,5.60
2019-03-13T07:04:36.562Z,5.60
2019-03-13T07:07:12.250Z,5.70
2019-03-13T07:09:52.844Z,5.80
2019-03-13T07:12:39.691Z,5.80
2019-03-13T07:15:22.368Z,5.90
2019-03-13T07:18:26.258Z,6.00
2019-03-13T07:21:30.087Z,6.10
2019-03-13T07:24:14.636Z,6.20
2019-03-13T07:27:07.034Z,6.30
2019-03-13T07:29:54.267Z,6.30
2019-03-13T07:32:41.429Z,6.50
2019-03-13T07:35:28.723Z,6.50
2019-03-13T07:38:16.252Z,6.60
2019-03-13T07:41:03.408Z,6.60
2019-03-13T07:43:54.975Z,6.70
2019-03-13T07:46:46.667Z,6.80
2019-03-13T07:49:43.912Z,6.90
2019-03-13T07:52:44.528Z,7.00
2019-03-13T07:55:31.527Z,7.00
2019-03-13T07:58:24.047Z,7.20
2019-03-13T08:01:11.423Z,7.30
2019-03-13T08:03:57.032Z,7.40
2019-03-13T08:06:45.555Z,7.50
2019-03-13T08:09:32.807Z,7.60
2019-03-13T08:12:23.475Z,7.80
2019-03-13T08:15:20.971Z,7.80
2019-03-13T08:18:02.225Z,7.90
2019-03-13T08:21:08.978Z,7.90
2019-03-13T08:23:56.487Z,7.90
2019-03-13T08:26:48.135Z,7.90
2019-03-13T08:29:36.766Z,8.00
2019-03-13T08:32:43.415Z,7.90
2019-03-13T08:35:40.744Z,8.00
2019-03-13T08:38:38.148Z,8.00
2019-03-13T08:41:16.574Z,8.00
2019-03-13T08:44:03.832Z,8.10
2019-03-13T08:46:49.655Z,8.00
2019-03-13T08:49:29.533Z,8.10
2019-03-13T08:52:16.766Z,8.10
2019-03-13T08:58:50.465Z,8.10
2019-03-13T09:01:51.026Z,8.10
2019-03-13T09:04:32.636Z,8.10
2019-03-13T09:07:54.611Z,8.00
2019-03-13T09:10:48.327Z,8.00
2019-03-13T09:13:45.992Z,8.10
2019-03-13T09:16:33.770Z,8.10
2019-03-13T09:19:28.922Z,8.10
2019-03-13T09:22:28.929Z,8.10
2019-03-13T09:29:13.235Z,8.20
2019-03-13T09:32:18.995Z,8.20
2019-03-13T09:35:09.193Z,8.30
2019-03-13T09:38:15.514Z,8.40
2019-03-13T09:41:09.361Z,8.40
2019-03-13T09:44:17.619Z,8.40
2019-03-13T09:47:06.044Z,8.50
2019-03-13T09:50:34.250Z,8.50
2019-03-13T09:53:42.406Z,8.50
2019-03-13T09:56:23.440Z,8.50
2019-03-13T09:59:24.279Z,8.60
2019-03-13T10:02:20.853Z,8.60
2019-03-13T10:05:13.092Z,8.40
2019-03-13T10:08:18.437Z,8.40
2019-03-13T10:11:13.642Z,8.30
2019-03-13T10:13:58.472Z,8.30
2019-03-13T10:16:45.869Z,8.30
2019-03-13T10:19:44.592Z,8.30
2019-03-13T10:22:36.241Z,8.40
2019-03-13T10:25:12.385Z,8.50
2019-03-13T10:27:51.251Z,8.60
2019-03-13T10:30:26.748Z,8.70
2019-03-13T10:33:21.701Z,8.90
2019-03-13T10:36:09.247Z,8.90
2019-03-13T10:38:55.719Z,9.00
2019-03-13T10:41:37.294Z,9.10
2019-03-13T10:44:32.210Z,9.40
2019-03-13T10:47:12.116Z,9.60
2019-03-13T10:49:54.549Z,9.80
2019-03-13T10:52:55.242Z,10.00
2019-03-13T10:55:49.640Z,10.20
2019-03-13T10:58:35.335Z,10.20
2019-03-13T11:01:22.900Z,10.10
2019-03-13T11:03:57.803Z,9.90
2019-03-13T11:06:54.846Z,9.60
2019-03-13T11:09:38.092Z,9.50
2019-03-13T11:12:29.700Z,9.40
2019-03-13T11:15:23.384Z,9.20
2019-03-13T11:18:10.518Z,9.20
2019-03-13T11:20:59.048Z,9.10
2019-03-13T11:23:56.747Z,9.10
2019-03-13T11:26:48.131Z,9.10
2019-03-13T11:29:42.613Z,9.20
2019-03-13T11:32:34.108Z,9.40
2019-03-13T11:35:21.487Z,9.60
2019-03-13T11:38:08.711Z,9.60
2019-03-13T11:40:59.101Z,9.70
2019-03-13T11:43:44.479Z,9.80
2019-03-13T11:46:26.299Z,10.00
2019-03-13T11:49:09.888Z,9.80
2019-03-13T11:51:55.567Z,9.70
2019-03-13T11:55:02.231Z,9.70
2019-03-13T11:57:49.552Z,9.60
2019-03-13T12:00:47.325Z,9.50
2019-03-13T12:03:50.862Z,9.40
2019-03-13T12:06:32.708Z,9.40
2019-03-13T12:09:09.147Z,9.40
2019-03-13T12:12:04.186Z,9.50
2019-03-13T12:14:55.174Z,9.50
2019-03-13T12:17:42.393Z,9.60
2019-03-13T12:20:28.260Z,9.50
2019-03-13T12:23:14.792Z,9.50
2019-03-13T12:26:06.307Z,9.40
2019-03-13T12:28:54.912Z,9.30
2019-03-13T12:31:49.603Z,9.20
2019-03-13T12:34:47.236Z,9.30
2019-03-13T12:37:35.860Z,9.30
2019-03-13T12:40:23.681Z,9.40
2019-03-13T12:43:15.531Z,9.40
2019-03-13T12:45:58.397Z,9.50
2019-03-13T12:48:47.287Z,9.50
2019-03-13T12:51:34.584Z,9.60
2019-03-13T12:54:22.219Z,9.60
2019-03-13T12:57:10.841Z,9.60
2019-03-13T12:59:59.635Z,9.70
2019-03-13T13:02:46.990Z,9.80
2019-03-13T13:05:35.626Z,9.90
2019-03-13T13:08:23.200Z,9.90
2019-03-13T13:11:00.769Z,10.00
2019-03-13T13:13:39.566Z,10.20
2019-03-13T13:16:40.580Z,10.60
2019-03-13T13:19:10.331Z,11.10
2019-03-13T13:21:40.231Z,11.50
2019-03-13T13:24:09.931Z,11.50
2019-03-13T13:26:39.642Z,11.30
2019-03-13T13:29:11.910Z,11.20
2019-03-13T13:31:41.754Z,11.30
2019-03-13T13:34:11.399Z,11.30
2019-03-13T13:36:41.212Z,11.10
2019-03-13T13:39:11.140Z,11.00
2019-03-13T13:41:40.970Z,11.10
2019-03-13T13:44:10.719Z,11.20
2019-03-13T13:46:44.360Z,11.40
2019-03-13T13:49:12.905Z,11.40
2019-03-13T13:51:42.521Z,11.40
2019-03-13T13:54:14.644Z,11.40
2019-03-13T13:56:44.503Z,11.40
2019-03-13T13:59:14.092Z,11.50
2019-03-13T14:01:43.877Z,11.60
2019-03-13T14:04:13.556Z,11.50
2019-03-13T14:06:43.253Z,11.60
2019-03-13T14:09:14.063Z,11.70
2019-03-13T14:11:43.719Z,11.80
2019-03-13T14:14:13.855Z,11.80
2019-03-13T14:16:43.473Z,11.60
2019-03-13T14:19:13.268Z,11.50
2019-03-13T14:21:45.161Z,11.30
2019-03-13T14:24:17.397Z,11.10
2019-03-13T14:26:46.370Z,11.10
2019-03-13T14:29:17.592Z,11.00
2019-03-13T14:31:47.225Z,10.90
2019-03-13T14:34:16.970Z,10.90
2019-03-13T14:36:46.735Z,10.80
2019-03-13T14:39:16.395Z,10.60
2019-03-13T14:41:46.067Z,10.40
2019-03-13T14:44:15.799Z,10.30
2019-03-13T14:46:45.459Z,10.20
2019-03-13T14:49:15.292Z,10.10
2019-03-13T14:51:47.419Z,10.10
2019-03-13T14:54:17.048Z,10.20
2019-03-13T14:56:46.673Z,10.20
2019-03-13T14:59:16.392Z,10.20
2019-03-13T15:01:46.129Z,10.30
2019-03-13T15:04:18.715Z,10.20
2019-03-13T15:06:48.414Z,10.20
2019-03-13T15:09:18.087Z,10.20
2019-03-13T15:11:50.125Z,10.20
2019-03-13T15:14:19.876Z,10.10
2019-03-13T15:16:49.728Z,10.20
2019-03-13T15:19:19.381Z,10.20
2019-03-13T15:21:49.136Z,10.40
2019-03-13T15:24:18.837Z,10.30
2019-03-13T15:26:48.542Z,10.30
2019-03-13T15:29:18.257Z,10.20
2019-03-13T15:31:47.935Z,10.20
2019-03-13T15:34:17.528Z,10.20
2019-03-13T15:36:47.320Z,10.20
2019-03-13T15:39:19.994Z,10.20
2019-03-13T15:41:49.753Z,10.40
2019-03-13T15:44:19.571Z,10.80
2019-03-13T15:46:49.270Z,10.50
2019-03-13T15:49:18.972Z,10.40
2019-03-13T15:51:48.690Z,10.30
2019-03-13T15:54:18.400Z,10.10
2019-03-13T15:56:49.810Z,10.10
2019-03-13T15:59:19.495Z,9.90
2019-03-13T16:01:49.166Z,9.80
2019-03-13T16:04:18.870Z,9.70
2019-03-13T16:06:48.616Z,9.70
2019-03-13T16:09:18.291Z,9.60
2019-03-13T16:11:47.992Z,9.60
2019-03-13T16:14:17.740Z,9.50
2019-03-13T16:16:47.413Z,9.40
2019-03-13T16:19:17.129Z,9.30
2019-03-13T16:21:46.887Z,9.30
2019-03-13T16:24:16.567Z,9.20
2019-03-13T16:26:46.275Z,9.00
2019-03-13T16:29:16.010Z,8.80
2019-03-13T16:31:45.677Z,8.70
2019-03-13T16:34:15.386Z,8.60
2019-03-13T16:36:45.011Z,8.60
2019-03-13T16:39:14.729Z,8.60
2019-03-13T16:41:44.453Z,8.60
2019-03-13T16:44:14.203Z,8.60
2019-03-13T16:46:43.845Z,8.50
2019-03-13T16:49:13.649Z,8.50
2019-03-13T16:51:43.290Z,8.40
2019-03-13T16:54:12.971Z,8.40
2019-03-13T16:56:42.661Z,8.30
2019-03-13T16:59:12.414Z,8.00
2019-03-13T17:01:42.078Z,7.90
2019-03-13T17:04:11.792Z,7.80
2019-03-13T17:06:41.529Z,7.70
2019-03-13T17:09:11.344Z,7.70
2019-03-13T17:11:40.923Z,7.70
2019-03-13T17:14:10.569Z,7.60
2019-03-13T17:16:40.303Z,7.50
2019-03-13T17:19:10.000Z,7.40
2019-03-13T17:21:39.716Z,7.20
2019-03-13T17:24:09.381Z,7.20
2019-03-13T17:26:39.098Z,7.20
2019-03-13T17:29:10.316Z,7.20
2019-03-13T17:31:39.952Z,7.20
2019-03-13T17:34:09.597Z,7.20
2019-03-13T17:36:39.274Z,7.20
2019-03-13T17:39:09.684Z,7.20
2019-03-13T17:41:39.314Z,7.20
2019-03-13T17:44:09.061Z,7.10
2019-03-13T17:46:38.777Z,7.10
2019-03-13T17:49:08.448Z,7.10
2019-03-13T17:51:38.169Z,7.10
2019-03-13T17:54:07.838Z,7.10
2019-03-13T17:56:37.594Z,7.00
2019-03-13T17:59:07.314Z,7.00
2019-03-13T18:01:38.648Z,7.00
2019-03-13T18:04:08.346Z,6.90
2019-03-13T18:06:38.071Z,6.90
2019-03-13T18:09:07.803Z,6.80
2019-03-13T18:11:37.571Z,6.80
2019-03-13T18:14:07.289Z,6.70
2019-03-13T18:16:37.041Z,6.60
2019-03-13T18:19:06.703Z,6.60
2019-03-13T18:21:36.439Z,6.50
2019-03-13T18:24:06.167Z,6.40
2019-03-13T18:26:35.839Z,6.40
2019-03-13T18:29:05.563Z,6.40
2019-03-13T18:31:35.307Z,6.30
2019-03-13T18:34:05.116Z,6.30
2019-03-13T18:36:35.014Z,6.20
2019-03-13T18:39:05.642Z,6.20
2019-03-13T18:41:35.215Z,6.20
2019-03-13T18:44:04.887Z,6.10
2019-03-13T18:46:34.519Z,6.20
2019-03-13T18:49:04.238Z,6.20
2019-03-13T18:51:33.972Z,6.10
2019-03-13T18:54:03.635Z,6.10
2019-03-13T18:56:33.355Z,6.10
2019-03-13T18:59:03.100Z,6.10
2019-03-13T19:01:32.792Z,6.00
2019-03-13T19:04:02.496Z,6.00
2019-03-13T19:06:32.246Z,6.00
2019-03-13T19:09:01.937Z,6.00
2019-03-13T19:11:31.633Z,6.00
2019-03-13T19:14:01.312Z,6.00
2019-03-13T19:16:31.059Z,6.00
2019-03-13T19:19:00.783Z,5.90
2019-03-13T19:21:30.468Z,6.00
2019-03-13T19:24:02.553Z,6.00
2019-03-13T19:26:31.523Z,6.10
2019-03-13T19:29:01.692Z,6.10
2019-03-13T19:31:31.549Z,6.00
2019-03-13T19:34:01.347Z,6.00
2019-03-13T19:36:30.988Z,6.10
2019-03-13T19:39:00.723Z,6.10
2019-03-13T19:41:30.361Z,6.20
2019-03-13T19:44:00.123Z,6.20
2019-03-13T19:46:32.144Z,6.20
2019-03-13T19:49:01.168Z,6.10
2019-03-13T19:51:30.885Z,6.10
2019-03-13T19:54:00.597Z,6.00
2019-03-13T19:56:30.395Z,6.00
2019-03-13T19:59:00.022Z,5.90
2019-03-13T20:01:29.781Z,5.80
2019-03-13T20:03:59.428Z,5.80
2019-03-13T20:06:41.426Z,5.70
2019-03-13T20:09:00.471Z,5.60
2019-03-13T20:11:30.205Z,5.60
2019-03-13T20:13:59.923Z,5.50
2019-03-13T20:16:29.616Z,5.50
2019-03-13T20:18:59.372Z,5.50
2019-03-13T20:21:31.166Z,5.40
2019-03-13T20:24:00.420Z,5.40
2019-03-13T20:26:30.351Z,5.30
2019-03-13T20:29:00.011Z,5.30
2019-03-13T20:31:29.732Z,5.30
2019-03-13T20:34:00.892Z,5.20
2019-03-13T20:36:30.604Z,5.20
2019-03-13T20:39:00.291Z,5.20
2019-03-13T20:41:29.889Z,5.20
2019-03-13T20:43:59.517Z,5.20
2019-03-13T20:46:29.284Z,5.20
2019-03-13T20:48:58.966Z,5.20
2019-03-13T20:51:28.650Z,5.20
2019-03-13T20:53:58.416Z,5.20
2019-03-13T20:56:28.061Z,5.20
2019-03-13T20:58:57.759Z,5.20
2019-03-13T21:01:27.474Z,5.10
2019-03-13T21:03:57.175Z,5.20
2019-03-13T21:06:34.660Z,5.20
2019-03-13T21:09:05.871Z,5.30
2019-03-13T21:11:35.507Z,5.30
2019-03-13T21:14:05.286Z,5.30
2019-03-13T21:16:34.942Z,5.30
2019-03-13T21:19:04.687Z,5.40
2019-03-13T21:21:36.270Z,5.30
2019-03-13T21:24:05.895Z,5.40
2019-03-13T21:26:35.667Z,5.40
2019-03-13T21:29:05.339Z,5.40
2019-03-13T21:31:35.037Z,5.50
2019-03-13T21:34:04.747Z,5.50
2019-03-13T21:36:34.567Z,5.60
2019-03-13T21:39:05.646Z,5.60
2019-03-13T21:41:35.730Z,5.70
2019-03-13T21:44:05.772Z,5.80
2019-03-13T21:46:35.639Z,5.90
2019-03-13T21:49:08.325Z,6.00
2019-03-13T21:51:38.245Z,6.10
2019-03-13T21:54:07.947Z,6.10
2019-03-13T21:56:38.203Z,6.20
2019-03-13T21:59:07.784Z,6.20
2019-03-13T22:01:39.528Z,6.30
2019-03-13T22:04:09.306Z,6.30
2019-03-13T22:06:38.959Z,6.40
2019-03-13T22:09:08.710Z,6.40
2019-03-13T22:11:38.469Z,6.40
2019-03-13T22:14:08.120Z,6.50
2019-03-13T22:16:37.825Z,6.50
2019-03-13T22:19:07.563Z,6.50
2019-03-13T22:21:37.216Z,6.40
2019-03-13T22:24:06.965Z,6.40
2019-03-13T22:26:36.660Z,6.20
2019-03-13T22:29:06.549Z,6.10
2019-03-13T22:31:36.151Z,6.00
2019-03-13T22:34:05.876Z,6.00
2019-03-13T22:36:35.620Z,6.00
2019-03-13T22:39:07.411Z,6.00
2019-03-13T22:41:37.103Z,6.10
2019-03-13T22:44:06.794Z,6.00
2019-03-13T22:46:36.467Z,6.00
2019-03-13T22:49:06.180Z,6.00
2019-03-13T22:51:36.024Z,5.90
2019-03-13T22:54:05.848Z,5.90
2019-03-13T22:56:35.555Z,5.80
2019-03-13T22:59:05.279Z,5.80
2019-03-13T23:01:35.140Z,5.90
2019-03-13T23:04:04.772Z,5.90
2019-03-13T23:06:34.779Z,5.90
2019-03-13T23:09:05.947Z,6.00
2019-03-13T23:11:35.726Z,6.00
2019-03-13T23:14:05.448Z,5.90
2019-03-13T23:16:35.128Z,5.90
2019-03-13T23:19:04.839Z,5.90
2019-03-13T23:21:34.579Z,5.90
2019-03-13T23:24:04.279Z,5.90
2019-03-13T23:26:34.041Z,5.90
2019-03-13T23:29:03.683Z,5.90
2019-03-13T23:31:33.400Z,5.90
2019-03-13T23:34:03.148Z,5.80
2019-03-13T23:36:32.834Z,5.80
2019-03-13T23:39:03.235Z,5.80
2019-03-13T23:41:32.916Z,5.80
2019-03-13T23:44:02.574Z,5.90
2019-03-13T23:46:32.284Z,5.90
2019-03-13T23:49:02.027Z,5.90
2019-03-13T23:51:31.726Z,5.90
2019-03-13T23:54:01.783Z,6.00
2019-03-13T23:56:31.517Z,6.00
2019-03-13T23:59:01.230Z,6.00
